sensor_id;sensor_type;location;lat;lon;timestamp;P1;durP1;ratioP1;P2;durP2;ratioP2
52041;SDS011;38052;45.944;13.624;2023-06-22T00:00:52;26.35;;;9.82;;
52041;SDS011;38052;45.944;13.624;2023-06-22T00:03:22;11.90;;;8.98;;
52041;SDS011;38052;45.944;13.624;2023-06-22T00:05:49;11.50;;;8.60;;
52041;SDS011;38052;45.944;13.624;2023-06-22T00:08:16;12.48;;;10.15;;
52041;SDS011;38052;45.944;13.624;2023-06-22T00:10:43;13.60;;;8.68;;
52041;SDS011;38052;45.944;13.624;2023-06-22T00:13:10;14.15;;;9.35;;
52041;SDS011;38052;45.944;13.624;2023-06-22T00:15:37;10.55;;;9.18;;
52041;SDS011;38052;45.944;13.624;2023-06-22T00:18:04;12.55;;;8.65;;
52041;SDS011;38052;45.944;13.624;2023-06-22T00:20:30;11.27;;;8.25;;
52041;SDS011;38052;45.944;13.624;2023-06-22T00:22:57;13.35;;;8.43;;
52041;SDS011;38052;45.944;13.624;2023-06-22T00:25:24;14.93;;;8.18;;
52041;SDS011;38052;45.944;13.624;2023-06-22T00:27:50;8.82;;;7.90;;
52041;SDS011;38052;45.944;13.624;2023-06-22T00:30:17;10.50;;;8.35;;
52041;SDS011;38052;45.944;13.624;2023-06-22T00:32:44;14.50;;;9.27;;
52041;SDS011;38052;45.944;13.624;2023-06-22T00:35:13;11.60;;;9.98;;
52041;SDS011;38052;45.944;13.624;2023-06-22T00:37:40;10.27;;;8.57;;
52041;SDS011;38052;45.944;13.624;2023-06-22T00:40:07;10.48;;;9.45;;
52041;SDS011;38052;45.944;13.624;2023-06-22T00:42:36;9.95;;;8.38;;
52041;SDS011;38052;45.944;13.624;2023-06-22T00:45:02;11.77;;;9.70;;
52041;SDS011;38052;45.944;13.624;2023-06-22T00:47:28;9.75;;;8.75;;
52041;SDS011;38052;45.944;13.624;2023-06-22T00:49:55;11.98;;;9.98;;
52041;SDS011;38052;45.944;13.624;2023-06-22T00:52:22;12.13;;;9.02;;
52041;SDS011;38052;45.944;13.624;2023-06-22T00:54:53;18.35;;;9.75;;
52041;SDS011;38052;45.944;13.624;2023-06-22T00:57:20;12.18;;;8.60;;
52041;SDS011;38052;45.944;13.624;2023-06-22T00:59:47;10.80;;;9.68;;
52041;SDS011;38052;45.944;13.624;2023-06-22T01:02:14;11.30;;;9.48;;
52041;SDS011;38052;45.944;13.624;2023-06-22T01:04:40;9.95;;;8.55;;
52041;SDS011;38052;45.944;13.624;2023-06-22T01:09:42;12.27;;;8.35;;
52041;SDS011;38052;45.944;13.624;2023-06-22T01:12:10;10.48;;;9.38;;
52041;SDS011;38052;45.944;13.624;2023-06-22T01:14:38;9.68;;;8.80;;
52041;SDS011;38052;45.944;13.624;2023-06-22T01:17:06;13.02;;;10.48;;
52041;SDS011;38052;45.944;13.624;2023-06-22T01:22:00;14.73;;;10.00;;
52041;SDS011;38052;45.944;13.624;2023-06-22T01:24:27;10.73;;;8.82;;
52041;SDS011;38052;45.944;13.624;2023-06-22T01:29:39;14.63;;;9.02;;
52041;SDS011;38052;45.944;13.624;2023-06-22T01:32:07;16.75;;;10.27;;
52041;SDS011;38052;45.944;13.624;2023-06-22T01:34:35;15.00;;;8.90;;
52041;SDS011;38052;45.944;13.624;2023-06-22T01:37:02;13.68;;;9.25;;
52041;SDS011;38052;45.944;13.624;2023-06-22T01:39:28;11.75;;;9.55;;
52041;SDS011;38052;45.944;13.624;2023-06-22T01:41:55;14.27;;;9.55;;
52041;SDS011;38052;45.944;13.624;2023-06-22T01:44:22;14.55;;;8.75;;
52041;SDS011;38052;45.944;13.624;2023-06-22T01:46:49;10.32;;;9.13;;
52041;SDS011;38052;45.944;13.624;2023-06-22T01:49:16;10.35;;;9.38;;
52041;SDS011;38052;45.944;13.624;2023-06-22T01:51:43;10.75;;;8.52;;
52041;SDS011;38052;45.944;13.624;2023-06-22T01:54:09;10.88;;;8.93;;
52041;SDS011;38052;45.944;13.624;2023-06-22T01:56:36;16.30;;;9.18;;
52041;SDS011;38052;45.944;13.624;2023-06-22T02:01:44;10.50;;;8.70;;
52041;SDS011;38052;45.944;13.624;2023-06-22T02:04:20;13.38;;;8.73;;
52041;SDS011;38052;45.944;13.624;2023-06-22T02:06:47;12.65;;;9.85;;
52041;SDS011;38052;45.944;13.624;2023-06-22T02:09:16;13.30;;;8.70;;
52041;SDS011;38052;45.944;13.624;2023-06-22T02:11:43;12.95;;;8.85;;
52041;SDS011;38052;45.944;13.624;2023-06-22T02:14:10;11.88;;;8.95;;
52041;SDS011;38052;45.944;13.624;2023-06-22T02:16:38;13.30;;;9.02;;
52041;SDS011;38052;45.944;13.624;2023-06-22T02:19:05;10.63;;;9.52;;
52041;SDS011;38052;45.944;13.624;2023-06-22T02:21:31;13.52;;;9.32;;
52041;SDS011;38052;45.944;13.624;2023-06-22T02:23:58;14.35;;;9.27;;
52041;SDS011;38052;45.944;13.624;2023-06-22T02:26:25;14.35;;;9.32;;
52041;SDS011;38052;45.944;13.624;2023-06-22T02:28:51;12.25;;;10.38;;
52041;SDS011;38052;45.944;13.624;2023-06-22T02:31:18;11.30;;;8.23;;
52041;SDS011;38052;45.944;13.624;2023-06-22T02:33:45;11.55;;;9.90;;
52041;SDS011;38052;45.944;13.624;2023-06-22T02:36:11;15.75;;;10.68;;
52041;SDS011;38052;45.944;13.624;2023-06-22T02:38:38;14.32;;;10.05;;
52041;SDS011;38052;45.944;13.624;2023-06-22T02:41:05;12.73;;;9.93;;
52041;SDS011;38052;45.944;13.624;2023-06-22T02:43:31;13.07;;;11.25;;
52041;SDS011;38052;45.944;13.624;2023-06-22T02:45:58;11.98;;;10.02;;
52041;SDS011;38052;45.944;13.624;2023-06-22T02:48:24;13.52;;;10.27;;
52041;SDS011;38052;45.944;13.624;2023-06-22T02:50:50;13.23;;;10.63;;
52041;SDS011;38052;45.944;13.624;2023-06-22T02:53:17;14.20;;;10.27;;
52041;SDS011;38052;45.944;13.624;2023-06-22T02:55:44;13.77;;;9.63;;
52041;SDS011;38052;45.944;13.624;2023-06-22T02:58:10;15.13;;;10.90;;
52041;SDS011;38052;45.944;13.624;2023-06-22T03:00:39;12.63;;;10.02;;
52041;SDS011;38052;45.944;13.624;2023-06-22T03:03:06;11.15;;;10.05;;
52041;SDS011;38052;45.944;13.624;2023-06-22T03:05:32;16.33;;;11.02;;
52041;SDS011;38052;45.944;13.624;2023-06-22T03:08:00;16.10;;;9.93;;
52041;SDS011;38052;45.944;13.624;2023-06-22T03:10:26;12.48;;;10.30;;
52041;SDS011;38052;45.944;13.624;2023-06-22T03:12:54;16.02;;;11.32;;
52041;SDS011;38052;45.944;13.624;2023-06-22T03:15:20;14.45;;;10.55;;
52041;SDS011;38052;45.944;13.624;2023-06-22T03:17:47;17.48;;;10.02;;
52041;SDS011;38052;45.944;13.624;2023-06-22T03:20:14;15.85;;;11.20;;
52041;SDS011;38052;45.944;13.624;2023-06-22T03:22:40;18.38;;;10.65;;
52041;SDS011;38052;45.944;13.624;2023-06-22T03:25:08;13.63;;;9.73;;
52041;SDS011;38052;45.944;13.624;2023-06-22T03:27:40;13.75;;;9.65;;
52041;SDS011;38052;45.944;13.624;2023-06-22T03:30:07;13.60;;;10.10;;
52041;SDS011;38052;45.944;13.624;2023-06-22T03:32:34;12.27;;;9.25;;
52041;SDS011;38052;45.944;13.624;2023-06-22T03:35:00;15.18;;;10.07;;
52041;SDS011;38052;45.944;13.624;2023-06-22T03:37:27;11.88;;;9.02;;
52041;SDS011;38052;45.944;13.624;2023-06-22T03:39:54;12.10;;;9.95;;
52041;SDS011;38052;45.944;13.624;2023-06-22T03:42:20;16.50;;;10.25;;
52041;SDS011;38052;45.944;13.624;2023-06-22T03:44:47;13.05;;;9.45;;
52041;SDS011;38052;45.944;13.624;2023-06-22T03:47:13;12.52;;;9.40;;
52041;SDS011;38052;45.944;13.624;2023-06-22T03:49:40;14.25;;;11.30;;
52041;SDS011;38052;45.944;13.624;2023-06-22T03:52:06;13.77;;;9.20;;
52041;SDS011;38052;45.944;13.624;2023-06-22T03:54:32;11.55;;;8.85;;
52041;SDS011;38052;45.944;13.624;2023-06-22T03:56:59;11.40;;;9.02;;
52041;SDS011;38052;45.944;13.624;2023-06-22T03:59:25;12.75;;;9.65;;
52041;SDS011;38052;45.944;13.624;2023-06-22T04:01:52;13.02;;;9.98;;
52041;SDS011;38052;45.944;13.624;2023-06-22T04:04:19;16.10;;;10.27;;
52041;SDS011;38052;45.944;13.624;2023-06-22T04:06:46;11.77;;;9.43;;
52041;SDS011;38052;45.944;13.624;2023-06-22T04:09:12;12.75;;;8.90;;
52041;SDS011;38052;45.944;13.624;2023-06-22T04:11:38;13.60;;;9.10;;
52041;SDS011;38052;45.944;13.624;2023-06-22T04:14:05;11.82;;;10.43;;
52041;SDS011;38052;45.944;13.624;2023-06-22T04:16:31;13.40;;;9.25;;
52041;SDS011;38052;45.944;13.624;2023-06-22T04:18:58;15.50;;;10.07;;
52041;SDS011;38052;45.944;13.624;2023-06-22T04:21:24;13.18;;;10.00;;
52041;SDS011;38052;45.944;13.624;2023-06-22T04:23:51;15.65;;;9.75;;
52041;SDS011;38052;45.944;13.624;2023-06-22T04:26:18;11.95;;;9.05;;
52041;SDS011;38052;45.944;13.624;2023-06-22T04:28:46;15.85;;;9.77;;
52041;SDS011;38052;45.944;13.624;2023-06-22T04:31:16;15.32;;;10.18;;
52041;SDS011;38052;45.944;13.624;2023-06-22T04:33:43;17.98;;;10.70;;
52041;SDS011;38052;45.944;13.624;2023-06-22T04:36:10;11.98;;;10.07;;
52041;SDS011;38052;45.944;13.624;2023-06-22T04:38:38;15.90;;;9.95;;
52041;SDS011;38052;45.944;13.624;2023-06-22T04:41:05;10.85;;;9.15;;
52041;SDS011;38052;45.944;13.624;2023-06-22T04:43:33;13.63;;;10.00;;
52041;SDS011;38052;45.944;13.624;2023-06-22T04:45:59;12.18;;;9.55;;
52041;SDS011;38052;45.944;13.624;2023-06-22T04:48:28;11.13;;;9.55;;
52041;SDS011;38052;45.944;13.624;2023-06-22T04:50:58;10.88;;;9.32;;
52041;SDS011;38052;45.944;13.624;2023-06-22T04:55:57;12.15;;;9.13;;
52041;SDS011;38052;45.944;13.624;2023-06-22T04:58:24;15.93;;;10.03;;
52041;SDS011;38052;45.944;13.624;2023-06-22T05:00:53;16.27;;;9.10;;
52041;SDS011;38052;45.944;13.624;2023-06-22T05:03:22;14.93;;;9.35;;
52041;SDS011;38052;45.944;13.624;2023-06-22T05:05:50;15.10;;;9.15;;
52041;SDS011;38052;45.944;13.624;2023-06-22T05:08:17;14.80;;;8.90;;
52041;SDS011;38052;45.944;13.624;2023-06-22T05:10:43;12.68;;;9.55;;
52041;SDS011;38052;45.944;13.624;2023-06-22T05:13:10;13.23;;;9.18;;
52041;SDS011;38052;45.944;13.624;2023-06-22T05:15:36;14.30;;;8.52;;
52041;SDS011;38052;45.944;13.624;2023-06-22T05:18:05;13.73;;;8.82;;
52041;SDS011;38052;45.944;13.624;2023-06-22T05:20:31;12.18;;;8.75;;
52041;SDS011;38052;45.944;13.624;2023-06-22T05:22:59;12.27;;;8.60;;
52041;SDS011;38052;45.944;13.624;2023-06-22T05:25:25;15.90;;;9.43;;
52041;SDS011;38052;45.944;13.624;2023-06-22T05:27:54;11.95;;;8.73;;
52041;SDS011;38052;45.944;13.624;2023-06-22T05:30:21;10.90;;;8.43;;
52041;SDS011;38052;45.944;13.624;2023-06-22T05:32:48;12.30;;;10.10;;
52041;SDS011;38052;45.944;13.624;2023-06-22T05:35:14;14.30;;;9.38;;
52041;SDS011;38052;45.944;13.624;2023-06-22T05:37:41;13.63;;;8.93;;
52041;SDS011;38052;45.944;13.624;2023-06-22T05:40:08;12.02;;;8.95;;
52041;SDS011;38052;45.944;13.624;2023-06-22T05:42:34;11.75;;;8.57;;
52041;SDS011;38052;45.944;13.624;2023-06-22T05:45:01;12.82;;;8.65;;
52041;SDS011;38052;45.944;13.624;2023-06-22T05:47:27;12.80;;;9.25;;
52041;SDS011;38052;45.944;13.624;2023-06-22T05:49:54;16.58;;;9.27;;
52041;SDS011;38052;45.944;13.624;2023-06-22T05:52:20;16.67;;;9.65;;
52041;SDS011;38052;45.944;13.624;2023-06-22T05:54:47;12.10;;;8.55;;
52041;SDS011;38052;45.944;13.624;2023-06-22T05:57:13;13.32;;;9.80;;
52041;SDS011;38052;45.944;13.624;2023-06-22T05:59:40;17.08;;;9.23;;
52041;SDS011;38052;45.944;13.624;2023-06-22T06:02:06;16.38;;;9.38;;
52041;SDS011;38052;45.944;13.624;2023-06-22T06:04:33;15.80;;;9.02;;
52041;SDS011;38052;45.944;13.624;2023-06-22T06:06:59;17.02;;;10.02;;
52041;SDS011;38052;45.944;13.624;2023-06-22T06:09:26;13.82;;;8.18;;
52041;SDS011;38052;45.944;13.624;2023-06-22T06:11:53;14.18;;;8.52;;
52041;SDS011;38052;45.944;13.624;2023-06-22T06:14:19;18.00;;;9.00;;
52041;SDS011;38052;45.944;13.624;2023-06-22T06:16:46;16.85;;;9.18;;
52041;SDS011;38052;45.944;13.624;2023-06-22T06:19:12;17.20;;;9.30;;
52041;SDS011;38052;45.944;13.624;2023-06-22T06:21:38;14.30;;;9.10;;
52041;SDS011;38052;45.944;13.624;2023-06-22T06:24:05;16.05;;;9.25;;
52041;SDS011;38052;45.944;13.624;2023-06-22T06:26:31;12.85;;;8.43;;
52041;SDS011;38052;45.944;13.624;2023-06-22T06:28:58;11.25;;;7.88;;
52041;SDS011;38052;45.944;13.624;2023-06-22T06:31:24;11.70;;;7.97;;
52041;SDS011;38052;45.944;13.624;2023-06-22T06:33:53;12.10;;;8.23;;
52041;SDS011;38052;45.944;13.624;2023-06-22T06:36:20;17.83;;;9.10;;
52041;SDS011;38052;45.944;13.624;2023-06-22T06:38:46;10.52;;;7.50;;
52041;SDS011;38052;45.944;13.624;2023-06-22T06:41:13;14.85;;;8.45;;
52041;SDS011;38052;45.944;13.624;2023-06-22T06:43:40;16.02;;;8.63;;
52041;SDS011;38052;45.944;13.624;2023-06-22T06:46:08;15.68;;;7.32;;
52041;SDS011;38052;45.944;13.624;2023-06-22T06:48:35;14.48;;;8.45;;
52041;SDS011;38052;45.944;13.624;2023-06-22T06:51:01;18.85;;;9.93;;
52041;SDS011;38052;45.944;13.624;2023-06-22T06:53:27;13.07;;;9.10;;
52041;SDS011;38052;45.944;13.624;2023-06-22T06:55:53;13.32;;;8.68;;
52041;SDS011;38052;45.944;13.624;2023-06-22T06:58:20;11.93;;;8.27;;
52041;SDS011;38052;45.944;13.624;2023-06-22T07:00:48;10.85;;;8.32;;
52041;SDS011;38052;45.944;13.624;2023-06-22T07:03:14;12.85;;;8.30;;
52041;SDS011;38052;45.944;13.624;2023-06-22T07:05:40;13.38;;;9.45;;
52041;SDS011;38052;45.944;13.624;2023-06-22T07:08:07;10.65;;;8.30;;
52041;SDS011;38052;45.944;13.624;2023-06-22T07:10:33;16.35;;;8.77;;
52041;SDS011;38052;45.944;13.624;2023-06-22T07:13:00;14.63;;;8.57;;
52041;SDS011;38052;45.944;13.624;2023-06-22T07:15:27;17.65;;;9.05;;
52041;SDS011;38052;45.944;13.624;2023-06-22T07:17:53;13.77;;;8.85;;
52041;SDS011;38052;45.944;13.624;2023-06-22T07:20:19;15.93;;;8.40;;
52041;SDS011;38052;45.944;13.624;2023-06-22T07:22:46;13.20;;;9.10;;
52041;SDS011;38052;45.944;13.624;2023-06-22T07:25:12;20.50;;;9.25;;
52041;SDS011;38052;45.944;13.624;2023-06-22T07:27:46;14.75;;;8.68;;
52041;SDS011;38052;45.944;13.624;2023-06-22T07:30:13;13.35;;;8.30;;
52041;SDS011;38052;45.944;13.624;2023-06-22T07:32:39;12.40;;;8.52;;
52041;SDS011;38052;45.944;13.624;2023-06-22T07:35:06;15.73;;;8.63;;
52041;SDS011;38052;45.944;13.624;2023-06-22T07:37:32;20.52;;;9.15;;
52041;SDS011;38052;45.944;13.624;2023-06-22T07:39:59;12.05;;;6.88;;
52041;SDS011;38052;45.944;13.624;2023-06-22T07:42:25;13.90;;;8.77;;
52041;SDS011;38052;45.944;13.624;2023-06-22T07:44:52;14.32;;;8.43;;
52041;SDS011;38052;45.944;13.624;2023-06-22T07:47:18;12.07;;;8.68;;
52041;SDS011;38052;45.944;13.624;2023-06-22T07:49:44;10.98;;;7.63;;
52041;SDS011;38052;45.944;13.624;2023-06-22T07:52:11;14.50;;;8.23;;
52041;SDS011;38052;45.944;13.624;2023-06-22T07:54:37;15.88;;;8.30;;
52041;SDS011;38052;45.944;13.624;2023-06-22T07:57:04;10.07;;;7.88;;
52041;SDS011;38052;45.944;13.624;2023-06-22T07:59:30;11.90;;;7.75;;
52041;SDS011;38052;45.944;13.624;2023-06-22T08:01:57;14.73;;;8.32;;
52041;SDS011;38052;45.944;13.624;2023-06-22T08:04:23;14.77;;;7.40;;
52041;SDS011;38052;45.944;13.624;2023-06-22T08:06:49;15.93;;;8.73;;
52041;SDS011;38052;45.944;13.624;2023-06-22T08:09:16;15.55;;;8.50;;
52041;SDS011;38052;45.944;13.624;2023-06-22T08:11:42;19.20;;;9.15;;
52041;SDS011;38052;45.944;13.624;2023-06-22T08:14:08;16.90;;;9.20;;
52041;SDS011;38052;45.944;13.624;2023-06-22T08:16:35;15.13;;;8.63;;
52041;SDS011;38052;45.944;13.624;2023-06-22T08:19:02;16.33;;;9.38;;
52041;SDS011;38052;45.944;13.624;2023-06-22T08:21:28;18.83;;;9.23;;
52041;SDS011;38052;45.944;13.624;2023-06-22T08:23:54;15.70;;;8.85;;
52041;SDS011;38052;45.944;13.624;2023-06-22T08:26:21;13.35;;;8.65;;
52041;SDS011;38052;45.944;13.624;2023-06-22T08:28:48;10.77;;;8.25;;
52041;SDS011;38052;45.944;13.624;2023-06-22T08:31:14;15.30;;;8.95;;
52041;SDS011;38052;45.944;13.624;2023-06-22T08:33:41;12.90;;;8.63;;
52041;SDS011;38052;45.944;13.624;2023-06-22T08:36:10;13.65;;;10.52;;
52041;SDS011;38052;45.944;13.624;2023-06-22T08:38:38;13.77;;;8.77;;
52041;SDS011;38052;45.944;13.624;2023-06-22T08:41:04;14.18;;;9.30;;
52041;SDS011;38052;45.944;13.624;2023-06-22T08:43:30;14.43;;;8.98;;
52041;SDS011;38052;45.944;13.624;2023-06-22T08:45:57;17.45;;;10.27;;
52041;SDS011;38052;45.944;13.624;2023-06-22T08:48:23;15.15;;;9.40;;
52041;SDS011;38052;45.944;13.624;2023-06-22T08:50:49;14.25;;;9.40;;
52041;SDS011;38052;45.944;13.624;2023-06-22T08:53:16;12.50;;;8.55;;
52041;SDS011;38052;45.944;13.624;2023-06-22T08:55:42;17.08;;;10.65;;
52041;SDS011;38052;45.944;13.624;2023-06-22T08:58:08;14.70;;;9.80;;
52041;SDS011;38052;45.944;13.624;2023-06-22T09:00:35;12.40;;;10.63;;
52041;SDS011;38052;45.944;13.624;2023-06-22T09:03:01;13.38;;;11.38;;
52041;SDS011;38052;45.944;13.624;2023-06-22T09:05:28;16.00;;;11.00;;
52041;SDS011;38052;45.944;13.624;2023-06-22T09:07:56;18.25;;;11.40;;
52041;SDS011;38052;45.944;13.624;2023-06-22T09:10:23;13.55;;;10.68;;
52041;SDS011;38052;45.944;13.624;2023-06-22T09:12:50;20.35;;;11.50;;
52041;SDS011;38052;45.944;13.624;2023-06-22T09:15:17;16.98;;;10.88;;
52041;SDS011;38052;45.944;13.624;2023-06-22T09:17:43;13.27;;;10.85;;
52041;SDS011;38052;45.944;13.624;2023-06-22T09:20:11;13.82;;;11.02;;
52041;SDS011;38052;45.944;13.624;2023-06-22T09:22:38;14.57;;;11.25;;
52041;SDS011;38052;45.944;13.624;2023-06-22T09:25:04;15.75;;;11.63;;
52041;SDS011;38052;45.944;13.624;2023-06-22T09:27:30;15.95;;;12.25;;
52041;SDS011;38052;45.944;13.624;2023-06-22T09:29:57;18.98;;;11.98;;
52041;SDS011;38052;45.944;13.624;2023-06-22T09:32:23;13.20;;;11.05;;
52041;SDS011;38052;45.944;13.624;2023-06-22T09:34:50;16.58;;;12.40;;
52041;SDS011;38052;45.944;13.624;2023-06-22T09:37:18;12.55;;;11.10;;
52041;SDS011;38052;45.944;13.624;2023-06-22T09:39:44;16.95;;;11.27;;
52041;SDS011;38052;45.944;13.624;2023-06-22T09:42:10;20.55;;;11.88;;
52041;SDS011;38052;45.944;13.624;2023-06-22T09:44:38;11.73;;;10.55;;
52041;SDS011;38052;45.944;13.624;2023-06-22T09:47:05;16.85;;;12.55;;
52041;SDS011;38052;45.944;13.624;2023-06-22T09:49:31;18.33;;;11.77;;
52041;SDS011;38052;45.944;13.624;2023-06-22T09:51:58;20.63;;;12.77;;
52041;SDS011;38052;45.944;13.624;2023-06-22T09:54:24;12.50;;;11.20;;
52041;SDS011;38052;45.944;13.624;2023-06-22T09:56:51;18.48;;;14.95;;
52041;SDS011;38052;45.944;13.624;2023-06-22T09:59:17;15.75;;;12.93;;
52041;SDS011;38052;45.944;13.624;2023-06-22T10:01:43;15.07;;;11.75;;
52041;SDS011;38052;45.944;13.624;2023-06-22T10:04:09;14.50;;;11.27;;
52041;SDS011;38052;45.944;13.624;2023-06-22T10:06:36;15.35;;;12.60;;
52041;SDS011;38052;45.944;13.624;2023-06-22T10:09:05;18.88;;;13.13;;
52041;SDS011;38052;45.944;13.624;2023-06-22T10:11:31;13.30;;;12.02;;
52041;SDS011;38052;45.944;13.624;2023-06-22T10:13:59;15.05;;;11.30;;
52041;SDS011;38052;45.944;13.624;2023-06-22T10:16:32;23.42;;;12.70;;
52041;SDS011;38052;45.944;13.624;2023-06-22T10:19:01;19.52;;;12.27;;
52041;SDS011;38052;45.944;13.624;2023-06-22T10:21:27;11.50;;;10.35;;
52041;SDS011;38052;45.944;13.624;2023-06-22T10:23:53;13.80;;;12.25;;
52041;SDS011;38052;45.944;13.624;2023-06-22T10:26:20;14.98;;;13.52;;
52041;SDS011;38052;45.944;13.624;2023-06-22T10:28:46;16.77;;;12.23;;
52041;SDS011;38052;45.944;13.624;2023-06-22T10:31:12;15.25;;;11.32;;
52041;SDS011;38052;45.944;13.624;2023-06-22T10:33:39;14.82;;;11.75;;
52041;SDS011;38052;45.944;13.624;2023-06-22T10:36:06;16.60;;;11.63;;
52041;SDS011;38052;45.944;13.624;2023-06-22T10:38:33;13.73;;;11.57;;
52041;SDS011;38052;45.944;13.624;2023-06-22T10:40:59;14.60;;;12.18;;
52041;SDS011;38052;45.944;13.624;2023-06-22T10:43:26;14.32;;;12.93;;
52041;SDS011;38052;45.944;13.624;2023-06-22T10:45:52;21.65;;;11.70;;
52041;SDS011;38052;45.944;13.624;2023-06-22T10:48:19;24.20;;;12.40;;
52041;SDS011;38052;45.944;13.624;2023-06-22T10:50:46;20.15;;;14.30;;
52041;SDS011;38052;45.944;13.624;2023-06-22T10:53:12;13.73;;;12.48;;
52041;SDS011;38052;45.944;13.624;2023-06-22T10:55:38;17.17;;;12.80;;
52041;SDS011;38052;45.944;13.624;2023-06-22T10:58:05;15.93;;;14.18;;
52041;SDS011;38052;45.944;13.624;2023-06-22T11:00:31;20.17;;;12.48;;
52041;SDS011;38052;45.944;13.624;2023-06-22T11:02:58;14.15;;;12.27;;
52041;SDS011;38052;45.944;13.624;2023-06-22T11:05:24;12.75;;;11.65;;
52041;SDS011;38052;45.944;13.624;2023-06-22T11:07:51;18.85;;;12.10;;
52041;SDS011;38052;45.944;13.624;2023-06-22T11:10:18;14.07;;;12.13;;
52041;SDS011;38052;45.944;13.624;2023-06-22T11:12:44;12.75;;;11.52;;
52041;SDS011;38052;45.944;13.624;2023-06-22T11:15:10;17.90;;;12.68;;
52041;SDS011;38052;45.944;13.624;2023-06-22T11:17:37;14.40;;;12.90;;
52041;SDS011;38052;45.944;13.624;2023-06-22T11:20:03;16.23;;;12.63;;
52041;SDS011;38052;45.944;13.624;2023-06-22T11:22:42;15.52;;;13.90;;
52041;SDS011;38052;45.944;13.624;2023-06-22T11:25:08;16.67;;;13.02;;
52041;SDS011;38052;45.944;13.624;2023-06-22T11:27:37;16.80;;;12.93;;
52041;SDS011;38052;45.944;13.624;2023-06-22T11:30:04;15.02;;;12.68;;
52041;SDS011;38052;45.944;13.624;2023-06-22T11:32:30;19.23;;;14.13;;
52041;SDS011;38052;45.944;13.624;2023-06-22T11:34:57;19.67;;;12.10;;
52041;SDS011;38052;45.944;13.624;2023-06-22T11:37:24;19.30;;;12.98;;
52041;SDS011;38052;45.944;13.624;2023-06-22T11:39:50;20.38;;;12.65;;
52041;SDS011;38052;45.944;13.624;2023-06-22T11:42:19;13.38;;;11.80;;
52041;SDS011;38052;45.944;13.624;2023-06-22T11:44:46;16.25;;;12.80;;
52041;SDS011;38052;45.944;13.624;2023-06-22T11:47:12;17.60;;;13.57;;
52041;SDS011;38052;45.944;13.624;2023-06-22T11:49:39;17.23;;;13.55;;
52041;SDS011;38052;45.944;13.624;2023-06-22T11:52:06;21.65;;;12.70;;
52041;SDS011;38052;45.944;13.624;2023-06-22T11:54:33;15.73;;;13.05;;
52041;SDS011;38052;45.944;13.624;2023-06-22T11:56:59;13.27;;;11.07;;
52041;SDS011;38052;45.944;13.624;2023-06-22T11:59:26;18.95;;;12.70;;
52041;SDS011;38052;45.944;13.624;2023-06-22T12:01:52;15.35;;;13.70;;
52041;SDS011;38052;45.944;13.624;2023-06-22T12:04:18;14.13;;;12.77;;
52041;SDS011;38052;45.944;13.624;2023-06-22T12:06:45;16.00;;;12.95;;
52041;SDS011;38052;45.944;13.624;2023-06-22T12:09:12;17.33;;;11.93;;
52041;SDS011;38052;45.944;13.624;2023-06-22T12:11:38;13.00;;;11.50;;
52041;SDS011;38052;45.944;13.624;2023-06-22T12:14:05;15.00;;;11.77;;
52041;SDS011;38052;45.944;13.624;2023-06-22T12:16:31;17.15;;;11.65;;
52041;SDS011;38052;45.944;13.624;2023-06-22T12:18:57;16.50;;;11.50;;
52041;SDS011;38052;45.944;13.624;2023-06-22T12:21:24;12.48;;;10.40;;
52041;SDS011;38052;45.944;13.624;2023-06-22T12:23:50;18.58;;;11.55;;
52041;SDS011;38052;45.944;13.624;2023-06-22T12:26:17;14.02;;;12.52;;
52041;SDS011;38052;45.944;13.624;2023-06-22T12:28:43;15.48;;;11.55;;
52041;SDS011;38052;45.944;13.624;2023-06-22T12:31:09;17.00;;;11.73;;
52041;SDS011;38052;45.944;13.624;2023-06-22T12:33:36;18.88;;;12.18;;
52041;SDS011;38052;45.944;13.624;2023-06-22T12:36:02;17.50;;;12.05;;
52041;SDS011;38052;45.944;13.624;2023-06-22T12:38:30;17.30;;;11.25;;
52041;SDS011;38052;45.944;13.624;2023-06-22T12:40:57;17.80;;;11.80;;
52041;SDS011;38052;45.944;13.624;2023-06-22T12:43:24;18.60;;;12.32;;
52041;SDS011;38052;45.944;13.624;2023-06-22T12:45:50;15.95;;;10.52;;
52041;SDS011;38052;45.944;13.624;2023-06-22T12:48:16;11.57;;;10.40;;
52041;SDS011;38052;45.944;13.624;2023-06-22T12:50:43;12.70;;;10.50;;
52041;SDS011;38052;45.944;13.624;2023-06-22T12:53:09;11.85;;;10.50;;
52041;SDS011;38052;45.944;13.624;2023-06-22T12:55:35;12.60;;;10.45;;
52041;SDS011;38052;45.944;13.624;2023-06-22T12:58:01;15.15;;;9.90;;
52041;SDS011;38052;45.944;13.624;2023-06-22T13:00:27;14.52;;;10.57;;
52041;SDS011;38052;45.944;13.624;2023-06-22T13:02:53;15.48;;;9.88;;
52041;SDS011;38052;45.944;13.624;2023-06-22T13:05:20;11.77;;;10.48;;
52041;SDS011;38052;45.944;13.624;2023-06-22T13:07:47;13.35;;;10.80;;
52041;SDS011;38052;45.944;13.624;2023-06-22T13:10:13;16.40;;;9.48;;
52041;SDS011;38052;45.944;13.624;2023-06-22T13:12:39;15.20;;;9.80;;
52041;SDS011;38052;45.944;13.624;2023-06-22T13:15:06;13.52;;;10.40;;
52041;SDS011;38052;45.944;13.624;2023-06-22T13:17:32;13.93;;;9.32;;
52041;SDS011;38052;45.944;13.624;2023-06-22T13:19:59;55.92;;;15.75;;
52041;SDS011;38052;45.944;13.624;2023-06-22T13:22:30;29.42;;;11.98;;
52041;SDS011;38052;45.944;13.624;2023-06-22T13:24:56;23.48;;;11.73;;
52041;SDS011;38052;45.944;13.624;2023-06-22T13:27:22;16.60;;;10.45;;
52041;SDS011;38052;45.944;13.624;2023-06-22T13:29:49;11.73;;;9.43;;
52041;SDS011;38052;45.944;13.624;2023-06-22T13:32:15;17.52;;;9.35;;
52041;SDS011;38052;45.944;13.624;2023-06-22T13:34:41;23.17;;;10.90;;
52041;SDS011;38052;45.944;13.624;2023-06-22T13:37:07;19.80;;;9.80;;
52041;SDS011;38052;45.944;13.624;2023-06-22T13:39:34;18.30;;;9.80;;
52041;SDS011;38052;45.944;13.624;2023-06-22T13:42:00;13.63;;;9.48;;
52041;SDS011;38052;45.944;13.624;2023-06-22T13:44:27;14.27;;;9.52;;
52041;SDS011;38052;45.944;13.624;2023-06-22T13:46:54;12.65;;;9.77;;
52041;SDS011;38052;45.944;13.624;2023-06-22T13:49:21;19.13;;;9.98;;
52041;SDS011;38052;45.944;13.624;2023-06-22T13:51:47;14.65;;;8.90;;
52041;SDS011;38052;45.944;13.624;2023-06-22T13:54:14;10.38;;;9.25;;
52041;SDS011;38052;45.944;13.624;2023-06-22T13:56:40;13.55;;;9.23;;
52041;SDS011;38052;45.944;13.624;2023-06-22T13:59:07;13.52;;;8.95;;
52041;SDS011;38052;45.944;13.624;2023-06-22T14:01:35;10.43;;;8.95;;
52041;SDS011;38052;45.944;13.624;2023-06-22T14:04:01;17.33;;;10.10;;
52041;SDS011;38052;45.944;13.624;2023-06-22T14:06:28;16.92;;;9.55;;
52041;SDS011;38052;45.944;13.624;2023-06-22T14:08:54;10.65;;;8.52;;
52041;SDS011;38052;45.944;13.624;2023-06-22T14:11:21;13.48;;;10.60;;
52041;SDS011;38052;45.944;13.624;2023-06-22T14:13:47;12.95;;;8.50;;
52041;SDS011;38052;45.944;13.624;2023-06-22T14:16:13;13.68;;;8.95;;
52041;SDS011;38052;45.944;13.624;2023-06-22T14:18:39;14.45;;;8.32;;
52041;SDS011;38052;45.944;13.624;2023-06-22T14:21:06;12.23;;;8.45;;
52041;SDS011;38052;45.944;13.624;2023-06-22T14:23:32;15.40;;;9.05;;
52041;SDS011;38052;45.944;13.624;2023-06-22T14:25:59;16.70;;;9.20;;